Time;durP1;ratioP1;P1;durP2;ratioP2;P2;SDS_P1;SDS_P2;PMS_P1;PMS_P2;Temp;Humidity;BMP_temperature;BMP_pressure;BME280_temperature;BME280_humidity;BME280_pressure;Samples;Min_cycle;Max_cycle;Signal;HPM_P1;HPM_P2
2022/10/20 00:00:34;;;;;;;7.15;5.57;;;10.60;99.90;;;;;;5029651;28;20238;-94
2022/10/20 00:03:01;;;;;;;6.68;5.47;;;10.60;99.90;;;;;;5028747;28;20274;-94
2022/10/20 00:05:28;;;;;;;5.53;5.03;;;10.60;99.90;;;;;;5029928;28;20226;-95
2022/10/20 00:07:55;;;;;;;5.88;5.30;;;10.60;99.90;;;;;;5031406;28;20211;-93
2022/10/20 00:10:23;;;;;;;6.43;5.32;;;10.60;99.90;;;;;;5032089;28;20199;-94
2022/10/20 00:12:50;;;;;;;5.82;5.10;;;10.50;99.90;;;;;;5030158;28;20202;-94
2022/10/20 00:15:17;;;;;;;6.15;4.80;;;10.50;99.90;;;;;;5028202;28;20226;-93
2022/10/20 00:17:45;;;;;;;6.68;5.47;;;10.50;99.90;;;;;;5029284;28;20199;-95
2022/10/20 00:20:12;;;;;;;7.65;4.88;;;10.50;99.90;;;;;;5030628;28;20207;-95
2022/10/20 00:22:39;;;;;;;11.15;5.72;;;10.50;99.90;;;;;;5029624;28;20217;-94
2022/10/20 00:25:06;;;;;;;6.03;5.32;;;10.50;99.90;;;;;;5027243;28;20310;-94
2022/10/20 00:27:34;;;;;;;7.85;5.78;;;10.50;99.90;;;;;;5027463;28;20210;-94
2022/10/20 00:30:01;;;;;;;9.13;6.70;;;10.50;99.90;;;;;;5027039;28;20271;-93
2022/10/20 00:32:29;;;;;;;6.60;5.57;;;10.40;99.90;;;;;;5026958;28;20214;-94
2022/10/20 00:34:56;;;;;;;9.05;6.30;;;10.40;99.90;;;;;;5026911;28;20230;-94
2022/10/20 00:37:23;;;;;;;7.43;5.95;;;10.40;99.90;;;;;;5026304;28;20215;-93
2022/10/20 00:39:50;;;;;;;6.85;5.60;;;10.40;99.90;;;;;;5025776;28;20210;-92
2022/10/20 00:42:18;;;;;;;6.60;4.97;;;10.40;99.90;;;;;;5027860;28;20199;-95
2022/10/20 00:44:53;;;;;;;7.63;6.32;;;10.40;99.90;;;;;;5029667;28;20277;-94
2022/10/20 00:47:26;;;;;;;6.55;5.43;;;10.30;99.90;;;;;;5036681;28;20190;-94
2022/10/20 00:49:55;;;;;;;8.60;6.03;;;10.30;99.90;;;;;;5036820;28;20217;-94
2022/10/20 00:52:22;;;;;;;6.40;5.70;;;10.30;99.90;;;;;;5031424;28;20203;-94
2022/10/20 00:54:50;;;;;;;6.80;5.68;;;10.30;99.90;;;;;;5028818;28;20226;-95
2022/10/20 00:57:17;;;;;;;6.50;5.28;;;10.30;99.90;;;;;;5029300;28;20207;-94
2022/10/20 00:59:44;;;;;;;6.90;5.97;;;10.20;99.90;;;;;;5028114;28;20227;-94
2022/10/20 01:02:14;;;;;;;7.07;5.55;;;10.20;99.90;;;;;;5028952;28;20213;-94
2022/10/20 01:04:42;;;;;;;6.93;6.25;;;10.20;99.90;;;;;;5030820;28;20226;-94
2022/10/20 01:07:08;;;;;;;7.35;5.78;;;10.20;99.90;;;;;;5029895;28;20217;-94
2022/10/20 01:09:37;;;;;;;7.28;5.45;;;10.10;99.90;;;;;;5029477;28;20290;-94
2022/10/20 01:12:15;;;;;;;6.60;5.75;;;10.10;99.90;;;;;;5028640;28;20282;-94
2022/10/20 01:14:49;;;;;;;6.03;5.28;;;10.10;99.90;;;;;;5028395;28;20234;-94
2022/10/20 01:17:26;;;;;;;7.72;5.95;;;10.10;99.90;;;;;;5028702;28;20207;-94
2022/10/20 01:20:18;;;;;;;6.85;5.82;;;10.00;99.90;;;;;;5027816;28;20217;-94
2022/10/20 01:23:33;;;;;;;6.47;5.10;;;10.00;99.90;;;;;;5026870;28;20598;-94
2022/10/20 01:26:25;;;;;;;6.80;5.10;;;10.00;99.90;;;;;;4965719;28;20236;-94
2022/10/20 01:28:58;;;;;;;7.38;6.15;;;10.00;99.90;;;;;;5022026;28;20682;-95
2022/10/20 01:31:30;;;;;;;6.95;5.18;;;10.00;99.90;;;;;;5026403;28;20214;-94
2022/10/20 01:34:04;;;;;;;8.02;5.45;;;9.90;99.90;;;;;;5027032;28;20274;-94
2022/10/20 01:36:36;;;;;;;6.53;5.20;;;10.00;99.90;;;;;;5026630;28;20742;-94
2022/10/20 01:39:07;;;;;;;7.00;5.85;;;9.90;99.90;;;;;;5026910;28;20221;-94
2022/10/20 01:41:38;;;;;;;6.88;5.82;;;9.90;99.90;;;;;;5026950;28;20237;-94
2022/10/20 01:44:10;;;;;;;6.88;5.65;;;9.90;99.90;;;;;;5038436;28;20277;-94
2022/10/20 01:46:39;;;;;;;7.30;5.55;;;9.90;99.90;;;;;;5025099;28;20203;-94
2022/10/20 01:49:08;;;;;;;6.63;5.35;;;9.90;99.90;;;;;;5026560;28;20366;-95
2022/10/20 01:51:35;;;;;;;8.35;6.60;;;9.80;99.90;;;;;;5024434;28;20690;-95
2022/10/20 01:54:01;;;;;;;7.63;5.30;;;9.80;99.90;;;;;;5025946;28;20213;-95
2022/10/20 01:56:38;;;;;;;7.35;5.72;;;9.80;99.90;;;;;;5027711;28;20234;-94
2022/10/20 01:59:32;;;;;;;6.68;5.78;;;9.80;99.90;;;;;;5025645;28;20257;-94
2022/10/20 02:02:10;;;;;;;6.65;5.38;;;9.80;99.90;;;;;;5024626;28;20278;-95
2022/10/20 02:04:52;;;;;;;8.73;5.80;;;9.80;99.90;;;;;;5024336;28;20230;-93
2022/10/20 02:07:26;;;;;;;7.13;5.80;;;9.80;99.90;;;;;;5024794;28;20202;-94
2022/10/20 02:09:59;;;;;;;6.75;5.78;;;9.80;99.90;;;;;;5025005;28;20266;-94
2022/10/20 02:12:29;;;;;;;7.35;5.25;;;9.70;99.90;;;;;;5028211;28;20202;-95
2022/10/20 02:14:58;;;;;;;7.80;5.05;;;9.70;99.90;;;;;;5029487;28;20229;-95
2022/10/20 02:17:25;;;;;;;6.32;5.30;;;9.70;99.90;;;;;;5026366;28;20213;-94
2022/10/20 02:19:53;;;;;;;8.00;6.22;;;9.70;99.90;;;;;;5025395;28;20218;-93
2022/10/20 02:22:21;;;;;;;7.97;5.70;;;9.70;99.90;;;;;;5024526;28;20238;-94
2022/10/20 02:24:48;;;;;;;8.73;6.20;;;9.70;99.90;;;;;;5026203;28;20289;-94
2022/10/20 02:27:18;;;;;;;7.45;6.38;;;9.70;99.90;;;;;;5026673;28;20227;-93
2022/10/20 02:29:50;;;;;;;7.80;5.68;;;9.70;99.90;;;;;;5027658;28;20273;-94
2022/10/20 02:32:18;;;;;;;8.30;6.15;;;9.70;99.90;;;;;;5027154;28;20216;-94
2022/10/20 02:34:45;;;;;;;7.80;6.20;;;9.70;99.90;;;;;;5025629;28;20294;-94
2022/10/20 02:37:12;;;;;;;7.82;6.00;;;9.70;99.90;;;;;;5026091;28;20222;-94
2022/10/20 02:39:39;;;;;;;6.45;5.25;;;9.70;99.90;;;;;;5024740;28;20214;-94
2022/10/20 02:42:06;;;;;;;6.20;5.60;;;9.70;99.90;;;;;;5024178;28;20295;-93
2022/10/20 02:46:58;;;;;;;6.60;5.00;;;9.70;99.90;;;;;;5064142;22;20235;-68
2022/10/20 02:49:26;;;;;;;7.95;5.45;;;9.70;99.90;;;;;;4992568;28;20211;-69
2022/10/20 02:51:53;;;;;;;6.70;5.75;;;9.70;99.90;;;;;;4991503;28;20686;-69
2022/10/20 02:54:20;;;;;;;9.82;4.82;;;9.70;99.90;;;;;;4992464;28;20230;-69
2022/10/20 02:56:47;;;;;;;7.07;5.60;;;9.70;99.90;;;;;;4992310;28;20224;-69
2022/10/20 02:59:16;;;;;;;8.00;5.90;;;9.70;99.90;;;;;;4992050;28;20226;-69
2022/10/20 03:01:43;;;;;;;7.93;6.25;;;9.60;99.90;;;;;;4991696;28;20249;-69
2022/10/20 03:04:10;;;;;;;6.35;5.20;;;9.60;99.90;;;;;;4991891;28;20231;-69
2022/10/20 03:06:39;;;;;;;11.50;5.90;;;9.60;99.90;;;;;;4992051;28;20596;-69
2022/10/20 03:09:06;;;;;;;8.13;5.43;;;9.70;99.90;;;;;;4991987;28;20221;-69
2022/10/20 03:11:32;;;;;;;7.15;4.95;;;9.70;99.90;;;;;;4991580;28;20207;-69
2022/10/20 03:13:59;;;;;;;6.45;5.55;;;9.60;99.90;;;;;;4991841;28;20605;-69
2022/10/20 03:16:26;;;;;;;8.57;5.80;;;9.60;99.90;;;;;;4995307;28;20634;-69
2022/10/20 03:18:53;;;;;;;9.40;6.75;;;9.70;99.90;;;;;;4996466;28;20682;-69
2022/10/20 03:21:19;;;;;;;9.93;6.82;;;9.60;99.90;;;;;;4995882;28;20298;-69
2022/10/20 03:23:48;;;;;;;6.95;5.80;;;9.60;99.90;;;;;;4996026;28;20634;-69
2022/10/20 03:26:15;;;;;;;6.38;5.57;;;9.60;99.90;;;;;;4995500;28;20195;-68
2022/10/20 03:28:41;;;;;;;9.65;5.78;;;9.70;99.90;;;;;;4995932;28;20203;-68
2022/10/20 03:31:09;;;;;;;7.10;5.25;;;9.70;99.90;;;;;;4995212;28;20236;-68
2022/10/20 03:33:36;;;;;;;7.55;5.10;;;9.70;99.90;;;;;;4994345;28;20590;-68
2022/10/20 03:36:03;;;;;;;8.07;5.60;;;9.70;99.90;;;;;;4994179;28;20219;-68
2022/10/20 03:38:29;;;;;;;7.40;5.03;;;9.70;99.90;;;;;;4995015;28;20200;-68
2022/10/20 03:40:57;;;;;;;6.13;4.82;;;9.70;99.90;;;;;;4994481;28;20204;-68
2022/10/20 03:43:24;;;;;;;9.93;5.60;;;9.70;99.90;;;;;;4994298;28;20206;-69
2022/10/20 03:46:00;;;;;;;6.57;5.30;;;9.70;99.90;;;;;;4991607;28;20211;-69
2022/10/20 03:48:27;;;;;;;8.35;6.13;;;9.70;99.90;;;;;;4993910;28;20214;-69
2022/10/20 03:50:54;;;;;;;6.20;5.57;;;9.70;99.90;;;;;;4994923;28;20210;-68
2022/10/20 03:53:20;;;;;;;5.70;5.20;;;9.70;99.90;;;;;;4993115;28;20215;-67
2022/10/20 03:55:47;;;;;;;7.00;5.18;;;9.70;99.90;;;;;;4995039;28;20223;-69
2022/10/20 03:58:15;;;;;;;7.10;5.10;;;9.70;99.90;;;;;;4995687;28;20215;-69
2022/10/20 04:00:42;;;;;;;6.57;5.05;;;9.70;99.90;;;;;;4993725;28;20706;-69
2022/10/20 04:03:09;;;;;;;9.80;5.93;;;9.70;99.90;;;;;;4994061;28;20199;-69
2022/10/20 04:05:35;;;;;;;8.43;6.00;;;9.80;99.90;;;;;;4994026;28;20309;-68
2022/10/20 04:08:03;;;;;;;11.18;5.70;;;9.70;99.90;;;;;;4993705;28;20211;-69
2022/10/20 04:10:30;;;;;;;7.97;6.07;;;9.80;99.90;;;;;;4994319;28;20247;-69
2022/10/20 04:12:57;;;;;;;7.78;6.30;;;9.80;99.90;;;;;;4993318;28;20282;-68
2022/10/20 04:15:26;;;;;;;6.68;5.55;;;9.80;99.90;;;;;;4994109;28;20222;-68
2022/10/20 04:17:53;;;;;;;7.38;6.22;;;9.80;99.90;;;;;;4993485;28;20230;-68
2022/10/20 04:20:20;;;;;;;8.30;5.78;;;9.80;99.90;;;;;;4994307;28;20196;-69
2022/10/20 04:22:47;;;;;;;7.22;5.90;;;9.80;99.90;;;;;;4993244;28;20201;-68
2022/10/20 04:25:17;;;;;;;7.07;5.45;;;9.80;99.90;;;;;;5033205;23;20237;-92
2022/10/20 04:31:17;;;;;;;7.47;5.45;;;9.80;99.90;;;;;;4997798;28;20234;-92
2022/10/20 04:33:44;;;;;;;7.35;5.45;;;9.90;99.90;;;;;;5032056;28;20203;-93
2022/10/20 04:36:14;;;;;;;8.52;5.90;;;9.90;99.90;;;;;;5030802;28;20604;-92
2022/10/20 04:38:41;;;;;;;9.57;5.30;;;9.90;99.90;;;;;;5033164;28;20233;-92
2022/10/20 04:41:10;;;;;;;9.40;6.43;;;9.90;99.90;;;;;;5034188;28;20246;-93
2022/10/20 04:43:37;;;;;;;9.48;5.35;;;10.00;99.90;;;;;;5034168;28;20758;-92
2022/10/20 04:46:25;;;;;;;6.68;4.80;;;10.00;99.90;;;;;;5032799;28;20229;-93
2022/10/20 04:48:54;;;;;;;6.00;5.35;;;10.00;99.90;;;;;;5035254;28;20191;-93
2022/10/20 04:51:22;;;;;;;7.15;5.63;;;10.00;99.90;;;;;;5035483;28;20303;-93
2022/10/20 04:53:49;;;;;;;6.93;5.53;;;10.00;99.90;;;;;;5035642;28;20191;-93
2022/10/20 04:56:18;;;;;;;6.90;5.32;;;10.00;99.90;;;;;;5035742;28;20331;-93
2022/10/20 04:58:48;;;;;;;6.93;5.65;;;10.00;99.90;;;;;;5035120;28;20366;-92
2022/10/20 05:01:15;;;;;;;7.32;5.10;;;10.00;99.90;;;;;;5034103;28;20199;-93
2022/10/20 05:03:43;;;;;;;7.82;5.55;;;10.00;99.90;;;;;;5035222;28;20203;-93
2022/10/20 05:06:18;;;;;;;6.47;4.93;;;10.10;99.90;;;;;;5035649;28;20225;-93
2022/10/20 05:08:48;;;;;;;8.02;5.40;;;10.10;99.90;;;;;;5033646;28;20195;-94
2022/10/20 05:11:16;;;;;;;7.50;5.97;;;10.10;99.90;;;;;;5042025;28;20171;-94
2022/10/20 05:13:45;;;;;;;5.78;5.18;;;10.10;99.90;;;;;;5058474;28;20179;-92
2022/10/20 05:16:13;;;;;;;5.97;5.10;;;10.10;99.90;;;;;;5067881;22;20364;-66
2022/10/20 05:18:41;;;;;;;5.35;4.55;;;10.10;99.90;;;;;;5010865;28;20206;-68
2022/10/20 05:21:10;;;;;;;7.60;5.50;;;10.10;99.90;;;;;;5011334;28;20210;-66
2022/10/20 05:23:40;;;;;;;6.45;5.50;;;10.20;99.90;;;;;;5011650;28;20234;-69
2022/10/20 05:26:09;;;;;;;12.07;7.22;;;10.20;99.90;;;;;;5010964;28;20294;-69
2022/10/20 05:28:36;;;;;;;8.82;6.47;;;10.20;99.90;;;;;;5012396;28;20290;-68
2022/10/20 05:31:03;;;;;;;7.30;6.20;;;10.20;99.90;;;;;;5012097;28;20296;-68
2022/10/20 05:33:30;;;;;;;7.68;5.55;;;10.20;99.90;;;;;;5011483;28;20293;-68
2022/10/20 05:35:57;;;;;;;8.30;5.70;;;10.20;99.90;;;;;;5012275;28;20211;-69
2022/10/20 05:38:24;;;;;;;9.05;5.70;;;10.20;99.90;;;;;;5011232;28;20238;-67
2022/10/20 05:40:52;;;;;;;6.97;5.28;;;10.20;99.90;;;;;;5010241;28;20203;-67
2022/10/20 05:43:19;;;;;;;7.85;5.35;;;10.20;99.90;;;;;;5011338;28;20203;-67
2022/10/20 05:45:46;;;;;;;8.55;6.07;;;10.20;99.90;;;;;;5011979;28;20202;-67
2022/10/20 05:48:14;;;;;;;8.10;6.10;;;10.20;99.90;;;;;;5011205;28;20565;-67
2022/10/20 05:50:40;;;;;;;8.32;6.20;;;10.20;99.90;;;;;;5010930;28;20226;-69
2022/10/20 05:53:07;;;;;;;6.85;5.90;;;10.10;99.90;;;;;;5010484;28;20214;-68
2022/10/20 05:55:34;;;;;;;8.77;6.00;;;10.20;99.90;;;;;;5010768;28;20242;-69
2022/10/20 05:58:02;;;;;;;8.88;6.00;;;10.20;99.90;;;;;;5011232;28;20234;-69
2022/10/20 06:00:30;;;;;;;8.38;6.18;;;10.20;99.90;;;;;;5011012;28;20608;-68
2022/10/20 06:02:57;;;;;;;10.77;6.95;;;10.20;99.90;;;;;;5009509;28;20301;-68
2022/10/20 06:05:24;;;;;;;8.55;6.13;;;10.20;99.90;;;;;;5010959;28;20223;-70
2022/10/20 06:07:53;;;;;;;8.48;6.38;;;10.20;99.90;;;;;;5010494;28;20203;-69
2022/10/20 06:10:19;;;;;;;9.98;7.03;;;10.20;99.90;;;;;;5010199;28;20225;-69
2022/10/20 06:12:46;;;;;;;8.75;6.97;;;10.20;99.90;;;;;;5010122;28;20210;-68
2022/10/20 06:15:14;;;;;;;7.47;6.10;;;10.20;99.90;;;;;;5010249;28;20735;-69
2022/10/20 06:17:41;;;;;;;7.38;5.65;;;10.20;99.90;;;;;;5010078;28;20234;-69
2022/10/20 06:20:08;;;;;;;7.82;6.45;;;10.20;99.90;;;;;;5010330;28;20678;-69
2022/10/20 06:22:36;;;;;;;8.25;5.88;;;10.20;99.90;;;;;;5010283;28;20213;-69
2022/10/20 06:25:02;;;;;;;9.80;7.07;;;10.30;99.90;;;;;;5009955;28;20230;-69
2022/10/20 06:27:29;;;;;;;8.73;6.53;;;10.30;99.90;;;;;;5009168;28;20195;-69
2022/10/20 06:29:56;;;;;;;10.13;6.63;;;10.30;99.90;;;;;;5009976;28;20203;-69
2022/10/20 06:32:24;;;;;;;10.00;6.68;;;10.30;99.90;;;;;;5009603;28;20211;-69
2022/10/20 06:34:52;;;;;;;8.73;7.05;;;10.30;99.90;;;;;;5010245;28;20230;-70
2022/10/20 06:37:19;;;;;;;9.73;6.55;;;10.40;99.90;;;;;;5010615;28;20638;-69
2022/10/20 06:39:46;;;;;;;11.90;6.60;;;10.40;99.90;;;;;;5009319;28;20581;-69
2022/10/20 06:42:13;;;;;;;8.82;6.78;;;10.50;99.90;;;;;;5009994;28;20238;-69
2022/10/20 06:44:39;;;;;;;8.75;6.78;;;10.50;99.90;;;;;;5010348;28;20234;-69
2022/10/20 06:47:09;;;;;;;15.35;8.30;;;10.50;99.90;;;;;;5010605;28;20209;-69
2022/10/20 06:49:37;;;;;;;9.70;6.63;;;10.50;99.90;;;;;;5010551;28;20662;-69
2022/10/20 06:52:04;;;;;;;10.20;6.30;;;10.60;99.90;;;;;;5009696;28;20207;-69
2022/10/20 06:54:31;;;;;;;10.50;6.90;;;10.60;99.90;;;;;;5010301;28;20506;-69
2022/10/20 06:56:57;;;;;;;10.07;7.85;;;10.70;99.90;;;;;;5010126;28;20219;-69
2022/10/20 06:59:24;;;;;;;8.88;6.93;;;10.70;99.90;;;;;;5010432;28;20199;-69
2022/10/20 07:01:51;;;;;;;10.77;7.15;;;10.70;99.90;;;;;;5009164;28;20268;-69
2022/10/20 07:04:18;;;;;;;7.68;6.28;;;10.70;99.90;;;;;;5010067;28;20230;-68
2022/10/20 07:06:46;;;;;;;13.27;7.18;;;10.80;99.90;;;;;;5010093;28;20211;-69
2022/10/20 07:09:15;;;;;;;10.80;7.53;;;10.90;99.90;;;;;;5009231;28;20306;-68
2022/10/20 07:11:43;;;;;;;9.05;6.63;;;10.90;99.90;;;;;;5009266;28;20210;-68
2022/10/20 07:14:12;;;;;;;9.77;6.95;;;11.00;99.90;;;;;;5009949;28;20227;-69
2022/10/20 07:16:39;;;;;;;8.95;6.90;;;11.10;99.90;;;;;;5008925;28;20751;-69
2022/10/20 07:19:06;;;;;;;10.23;6.68;;;11.20;99.90;;;;;;5009742;28;20234;-69
2022/10/20 07:21:35;;;;;;;10.90;7.55;;;11.30;99.90;;;;;;5009316;28;20227;-69
2022/10/20 07:24:05;;;;;;;16.52;8.40;;;11.30;99.90;;;;;;5009314;28;20234;-68
2022/10/20 07:26:33;;;;;;;12.48;6.85;;;11.40;99.90;;;;;;5009816;28;20199;-68
2022/10/20 07:29:01;;;;;;;11.55;8.32;;;11.50;99.90;;;;;;5009267;28;20207;-69
2022/10/20 07:31:30;;;;;;;11.45;7.40;;;11.60;99.90;;;;;;5010122;28;20218;-69
2022/10/20 07:33:58;;;;;;;10.75;7.90;;;11.70;99.90;;;;;;5010538;28;20733;-68
2022/10/20 07:36:27;;;;;;;10.27;7.20;;;11.90;99.90;;;;;;5010789;28;20203;-69
2022/10/20 07:38:56;;;;;;;10.40;7.30;;;12.20;99.90;;;;;;5010366;28;20222;-69
2022/10/20 07:41:25;;;;;;;8.93;7.50;;;12.50;99.90;;;;;;5010097;28;20203;-69
2022/10/20 07:43:52;;;;;;;15.32;9.15;;;12.70;99.90;;;;;;5010490;28;21091;-69
2022/10/20 07:46:19;;;;;;;13.07;7.47;;;12.90;99.90;;;;;;5010530;28;20199;-68
2022/10/20 07:48:46;;;;;;;10.88;8.48;;;13.10;99.90;;;;;;5010892;28;20199;-69
2022/10/20 07:51:15;;;;;;;10.47;7.40;;;13.20;99.90;;;;;;5010414;28;20199;-69
2022/10/20 07:53:42;;;;;;;8.00;6.47;;;13.40;99.90;;;;;;5009973;28;20482;-68
2022/10/20 07:56:10;;;;;;;10.20;7.17;;;13.50;99.90;;;;;;5010822;28;20472;-68
2022/10/20 07:58:38;;;;;;;8.60;7.00;;;13.60;99.90;;;;;;5010660;28;20836;-68
2022/10/20 08:01:05;;;;;;;10.87;6.77;;;13.70;99.90;;;;;;5011328;28;20821;-68
2022/10/20 08:03:32;;;;;;;8.70;6.60;;;13.80;99.90;;;;;;5014221;28;20860;-68
2022/10/20 08:05:59;;;;;;;8.80;7.00;;;13.90;99.90;;;;;;5013942;28;20461;-68
2022/10/20 08:08:26;;;;;;;9.87;7.30;;;14.00;99.90;;;;;;5014097;28;20465;-69
2022/10/20 08:10:53;;;;;;;9.97;6.60;;;14.10;99.90;;;;;;5012656;28;20466;-68
2022/10/20 08:13:20;;;;;;;8.87;6.60;;;14.30;99.90;;;;;;5012473;28;20837;-69
2022/10/20 08:15:48;;;;;;;8.67;5.97;;;14.40;99.90;;;;;;5012628;28;20468;-68
2022/10/20 08:18:15;;;;;;;7.33;6.60;;;14.50;99.90;;;;;;5012605;28;20488;-69
2022/10/20 08:20:41;;;;;;;6.27;5.10;;;14.60;99.90;;;;;;5012780;28;20465;-69
2022/10/20 08:23:08;;;;;;;8.60;6.03;;;14.80;99.90;;;;;;5012021;28;20466;-69
2022/10/20 08:25:35;;;;;;;8.47;6.13;;;14.90;99.90;;;;;;5012696;28;20494;-69
2022/10/20 08:28:02;;;;;;;9.10;6.97;;;15.10;99.90;;;;;;5012612;28;20840;-69
2022/10/20 08:30:28;;;;;;;9.47;6.83;;;15.30;99.90;;;;;;5011500;28;20466;-68
2022/10/20 08:32:56;;;;;;;7.20;5.63;;;15.50;99.90;;;;;;5012912;28;20477;-68
2022/10/20 08:35:24;;;;;;;7.40;5.50;;;15.60;99.90;;;;;;5013901;28;20866;-69
2022/10/20 08:37:51;;;;;;;7.30;5.33;;;15.70;99.90;;;;;;5013617;28;20487;-68
2022/10/20 08:40:21;;;;;;;8.97;6.83;;;15.80;99.90;;;;;;5013247;28;20489;-69
2022/10/20 08:42:48;;;;;;;7.40;5.70;;;15.80;99.90;;;;;;5010005;28;20466;-69
2022/10/20 08:45:17;;;;;;;10.17;6.13;;;15.90;99.90;;;;;;5012870;28;20478;-68
2022/10/20 08:47:45;;;;;;;10.80;6.50;;;16.00;99.90;;;;;;5012899;28;20457;-68
2022/10/20 08:50:15;;;;;;;6.37;5.33;;;16.10;99.90;;;;;;5012432;28;20465;-68
2022/10/20 08:52:44;;;;;;;9.47;5.93;;;16.30;99.90;;;;;;5012236;28;20491;-68
2022/10/20 08:55:20;;;;;;;8.50;5.80;;;16.40;99.90;;;;;;5012451;28;20490;-68
2022/10/20 09:00:17;;;;;;;5.67;4.60;;;16.70;99.90;;;;;;5081937;22;20495;-95
2022/10/20 09:02:45;;;;;;;6.83;5.33;;;16.60;99.90;;;;;;5073830;28;20515;-95
2022/10/20 09:05:26;;;;;;;6.97;5.07;;;16.60;99.90;;;;;;5078961;28;20480;-93
2022/10/20 09:08:15;;;;;;;6.80;4.87;;;16.70;99.90;;;;;;5078287;28;20444;-95
2022/10/20 09:10:47;;;;;;;5.53;4.10;;;16.90;99.90;;;;;;5059190;28;20488;-94
2022/10/20 09:13:28;;;;;;;4.47;3.83;;;17.00;99.90;;;;;;5056887;28;20529;-94
2022/10/20 09:16:02;;;;;;;5.10;4.03;;;17.10;99.90;;;;;;5059058;28;20441;-96
2022/10/20 09:18:29;;;;;;;4.77;4.30;;;17.10;99.90;;;;;;5058381;28;20473;-94
2022/10/20 09:21:01;;;;;;;5.07;3.90;;;16.80;99.90;;;;;;5056775;28;20488;-94
2022/10/20 09:23:39;;;;;;;4.63;4.13;;;16.70;99.90;;;;;;5058259;28;20516;-95
2022/10/20 09:26:14;;;;;;;5.33;4.50;;;16.50;99.90;;;;;;5058427;28;20560;-94
2022/10/20 09:28:41;;;;;;;5.70;4.17;;;16.20;99.90;;;;;;5058308;28;20480;-94
2022/10/20 09:34:21;;;;;;;5.77;4.63;;;16.20;99.90;;;;;;5058095;28;20496;-94
2022/10/20 09:36:49;;;;;;;4.53;4.10;;;16.00;99.90;;;;;;5058489;28;20519;-94
2022/10/20 09:39:20;;;;;;;5.10;4.60;;;15.60;99.90;;;;;;5057905;28;20496;-94
2022/10/20 09:41:48;;;;;;;5.47;4.97;;;15.40;99.90;;;;;;5057870;28;20513;-94
2022/10/20 09:44:22;;;;;;;5.50;4.30;;;15.20;99.90;;;;;;5057930;28;20445;-94
2022/10/20 09:46:52;;;;;;;5.00;4.20;;;15.10;99.90;;;;;;5056563;28;20453;-94
2022/10/20 09:49:25;;;;;;;5.10;4.60;;;15.10;99.90;;;;;;5048463;28;20507;-93
2022/10/20 09:51:54;;;;;;;4.07;3.67;;;15.20;99.90;;;;;;5046393;28;20460;-92
2022/10/20 09:54:25;;;;;;;4.40;4.00;;;15.20;99.90;;;;;;5040048;28;20469;-92
2022/10/20 09:56:53;;;;;;;4.80;4.30;;;15.20;99.90;;;;;;5040344;28;20471;-92
2022/10/20 09:59:22;;;;;;;4.30;3.90;;;15.20;99.90;;;;;;5050831;28;20584;-93
2022/10/20 10:01:57;;;;;;;4.57;3.60;;;15.20;99.90;;;;;;5053833;28;20460;-95
2022/10/20 10:04:44;;;;;;;4.47;3.80;;;15.20;99.90;;;;;;5057319;28;20521;-95
2022/10/20 10:07:42;;;;;;;3.87;3.53;;;15.20;99.90;;;;;;5056980;28;20564;-95
2022/10/20 10:10:56;;;;;;;5.93;4.50;;;15.30;99.90;;;;;;5056496;28;20477;-94
2022/10/20 10:16:55;;;;;;;4.07;3.63;;;15.40;99.90;;;;;;5056636;28;20456;-96
2022/10/20 10:19:36;;;;;;;4.27;3.73;;;15.50;99.90;;;;;;5057736;28;20507;-94
2022/10/20 10:23:03;;;;;;;4.20;3.53;;;15.50;99.90;;;;;;5057152;28;20477;-95
2022/10/20 10:25:29;;;;;;;4.77;3.93;;;15.60;99.90;;;;;;5044933;22;20529;-66
2022/10/20 10:28:03;;;;;;;5.70;3.90;;;15.60;99.90;;;;;;5011036;28;20450;-66
2022/10/20 10:30:33;;;;;;;4.97;3.60;;;15.60;99.90;;;;;;5011579;28;20840;-66
2022/10/20 10:33:00;;;;;;;4.50;3.90;;;15.70;99.90;;;;;;5010925;28;20945;-66
2022/10/20 10:35:30;;;;;;;4.27;3.80;;;15.70;99.90;;;;;;5010929;28;20477;-66
2022/10/20 10:38:00;;;;;;;4.77;3.77;;;15.80;99.90;;;;;;5011231;28;20490;-66
2022/10/20 10:40:33;;;;;;;5.40;4.20;;;15.90;99.90;;;;;;5011120;28;20468;-66
2022/10/20 10:43:20;;;;;;;4.67;3.77;;;15.90;99.90;;;;;;5010585;28;20461;-66
2022/10/20 10:45:55;;;;;;;4.13;3.63;;;15.90;99.90;;;;;;5011193;28;20465;-66
2022/10/20 10:48:53;;;;;;;4.97;3.70;;;15.80;99.90;;;;;;5010254;28;20473;-66
2022/10/20 10:51:34;;;;;;;4.43;3.20;;;15.90;99.90;;;;;;5009970;28;20473;-66
2022/10/20 10:54:13;;;;;;;4.57;2.90;;;15.90;99.90;;;;;;5010872;28;20481;-66
2022/10/20 10:56:44;;;;;;;3.23;2.90;;;15.80;99.90;;;;;;5010841;28;20458;-66
2022/10/20 10:59:15;;;;;;;3.80;3.30;;;15.80;99.90;;;;;;5009865;28;20486;-66
2022/10/20 11:02:03;;;;;;;3.83;3.53;;;15.70;99.90;;;;;;5010255;28;20557;-66
2022/10/20 11:04:47;;;;;;;3.93;3.53;;;15.70;99.90;;;;;;5010273;28;20492;-66
2022/10/20 11:07:28;;;;;;;3.93;3.40;;;15.70;99.90;;;;;;5010659;28;20484;-67
2022/10/20 11:10:04;;;;;;;4.07;3.60;;;15.70;99.90;;;;;;5010524;28;20457;-67
2022/10/20 11:12:49;;;;;;;3.27;2.97;;;15.80;99.90;;;;;;5009642;28;20465;-67
2022/10/20 11:15:28;;;;;;;3.30;3.00;;;15.80;99.90;;;;;;5010314;28;20490;-67
2022/10/20 11:18:02;;;;;;;4.27;3.17;;;15.90;99.90;;;;;;5010553;28;20457;-67
2022/10/20 11:20:38;;;;;;;3.70;3.40;;;15.90;99.90;;;;;;5010717;28;20474;-67
2022/10/20 11:23:30;;;;;;;3.60;3.30;;;16.00;99.90;;;;;;5009912;28;20468;-67
2022/10/20 11:26:09;;;;;;;4.53;3.50;;;16.10;99.90;;;;;;5009958;28;20474;-67
2022/10/20 11:28:43;;;;;;;4.40;3.63;;;16.10;99.90;;;;;;5011026;28;20861;-67
2022/10/20 11:31:18;;;;;;;6.73;3.23;;;16.20;99.90;;;;;;5010179;28;20464;-67
2022/10/20 11:33:51;;;;;;;3.90;3.60;;;16.20;99.90;;;;;;5010401;28;20517;-67
2022/10/20 11:36:20;;;;;;;3.23;2.93;;;16.30;99.90;;;;;;5011420;28;20968;-67
2022/10/20 11:38:51;;;;;;;4.40;3.30;;;16.30;99.90;;;;;;5014396;28;20485;-67
2022/10/20 11:41:25;;;;;;;3.93;3.10;;;16.30;99.90;;;;;;5013461;28;20588;-66
2022/10/20 11:43:58;;;;;;;6.43;3.70;;;16.30;99.90;;;;;;5014604;28;20492;-67
2022/10/20 11:46:34;;;;;;;4.63;3.53;;;16.30;99.90;;;;;;5014466;28;20496;-67
2022/10/20 11:49:03;;;;;;;3.97;3.57;;;16.30;99.90;;;;;;5013438;28;20820;-67
2022/10/20 11:51:50;;;;;;;5.50;3.73;;;16.40;99.90;;;;;;5013848;28;20851;-67
2022/10/20 11:54:44;;;;;;;5.50;3.23;;;16.30;99.90;;;;;;5012745;28;20484;-66
2022/10/20 11:57:24;;;;;;;3.97;3.60;;;16.30;99.90;;;;;;5011992;28;20854;-67
2022/10/20 12:00:04;;;;;;;3.90;3.40;;;16.30;99.90;;;;;;5014062;28;20568;-66
2022/10/20 12:03:16;;;;;;;3.13;2.90;;;16.30;99.90;;;;;;5013389;28;20471;-66
2022/10/20 12:06:00;;;;;;;4.70;4.20;;;16.30;99.90;;;;;;4998405;28;20945;-67
2022/10/20 12:08:44;;;;;;;5.10;3.70;;;16.20;99.90;;;;;;5013597;28;20453;-66
2022/10/20 12:11:18;;;;;;;4.30;3.90;;;16.20;99.90;;;;;;5012619;28;20458;-66
2022/10/20 12:13:58;;;;;;;4.87;3.97;;;16.20;99.90;;;;;;5012741;28;20482;-66
2022/10/20 12:17:03;;;;;;;5.60;3.60;;;16.20;99.90;;;;;;5013328;28;20461;-67
2022/10/20 12:19:32;;;;;;;4.80;3.50;;;16.20;99.90;;;;;;5012970;28;20504;-66
2022/10/20 12:22:00;;;;;;;4.77;4.00;;;16.30;99.90;;;;;;5012840;28;20465;-67
2022/10/20 12:24:33;;;;;;;4.97;3.77;;;16.30;99.90;;;;;;5013121;28;20482;-67
2022/10/20 12:27:16;;;;;;;4.80;3.97;;;16.30;99.90;;;;;;5012542;28;20473;-67
2022/10/20 12:30:21;;;;;;;4.53;3.80;;;16.40;99.90;;;;;;5013422;28;20828;-67
2022/10/20 12:33:14;;;;;;;4.73;3.97;;;16.40;99.90;;;;;;5012189;28;20465;-67
2022/10/20 12:35:59;;;;;;;4.10;3.50;;;16.30;99.90;;;;;;5013245;28;20473;-67
2022/10/20 12:38:27;;;;;;;4.53;3.70;;;16.40;99.90;;;;;;5012837;28;20493;-67
2022/10/20 12:40:57;;;;;;;3.87;3.40;;;16.40;99.90;;;;;;5012731;28;20469;-67
2022/10/20 12:43:37;;;;;;;3.83;3.30;;;16.40;99.90;;;;;;5012567;28;20470;-67
2022/10/20 12:46:10;;;;;;;4.70;3.60;;;16.40;99.90;;;;;;5013702;28;20477;-67
2022/10/20 12:48:43;;;;;;;4.30;3.90;;;16.40;99.90;;;;;;5012903;28;20470;-67
2022/10/20 12:51:21;;;;;;;6.90;4.67;;;16.40;99.90;;;;;;5012626;28;20539;-66
2022/10/20 12:53:56;;;;;;;4.27;3.40;;;16.30;99.90;;;;;;5013201;28;20509;-67
2022/10/20 12:56:25;;;;;;;4.20;3.70;;;16.30;99.90;;;;;;5013276;28;20465;-67
2022/10/20 12:59:46;;;;;;;4.33;3.43;;;16.30;99.90;;;;;;5013064;28;20482;-67
2022/10/20 13:02:45;;;;;;;3.70;3.30;;;16.30;99.90;;;;;;4990439;28;21058;-67
2022/10/20 13:05:41;;;;;;;3.93;3.50;;;16.30;99.90;;;;;;5012500;28;20482;-67
2022/10/20 13:08:36;;;;;;;4.80;3.73;;;16.20;99.90;;;;;;5000348;28;20841;-67
2022/10/20 13:11:41;;;;;;;5.47;3.60;;;16.30;99.90;;;;;;5012221;28;20454;-67
2022/10/20 13:14:24;;;;;;;4.40;3.93;;;16.20;99.90;;;;;;5012564;28;20580;-67
2022/10/20 13:17:02;;;;;;;3.93;3.53;;;16.20;99.90;;;;;;5012459;28;20965;-67
2022/10/20 13:19:38;;;;;;;3.27;2.97;;;16.20;99.90;;;;;;5012409;28;20489;-67
2022/10/20 13:22:36;;;;;;;4.23;3.80;;;16.20;99.90;;;;;;5012751;28;20458;-67
2022/10/20 13:25:06;;;;;;;5.00;4.20;;;16.20;99.90;;;;;;5012050;28;20486;-67
2022/10/20 13:27:33;;;;;;;3.93;3.30;;;16.10;99.90;;;;;;5013381;28;20472;-67